Cudjoe Key, FL

12:47 PM EST on February 11, 2016 (GMT -0500)
Cudjoe Key | | Change Station
CLOSE
Current Station
Personal Weather Station
Location: Cudjoe Key, FL
Elevation: 16 ft
Nearby Weather Stations

Elev 16 ft 24.66 °N, 81.48 °W | Updated 1 minute ago

Partly Cloudy
Partly Cloudy
60.5 °F
Feels Like 60.5 °F
N
11.0
Wind Variable Wind from ENE
Gusts 20.0 mph

Today
High -- | Low -- °F
--% Chance of Precip.
Yesterday
High -- | Low -- °F
Precip. -- in
Pressure 30.32 in
Visibility 10.0 miles
Clouds Few 2500 ft
Mostly Cloudy 25000 ft
Dew Point 49 °F
Humidity 66%
Rainfall 0.00 in
Snow Depth Not available.
7:02 AM 6:17 PM
Waxing Crescent, 13% visible
METAR KNQX 111653Z 04011KT 10SM FEW025 BKN250 17/09 A3032 RMK AO2 SLP266 T01670094 $
Pressure 30.32 in
Visibility 10.0 miles
Clouds Few 2500 ft
Mostly Cloudy 25000 ft
Dew Point 49 °F
Humidity 66%
Rainfall 0.00 in
Snow Depth Not available.
7:02 AM 6:17 PM
Waxing Crescent, 13% visible
METAR KNQX 111653Z 04011KT 10SM FEW025 BKN250 17/09 A3032 RMK AO2 SLP266 T01670094 $

10-Day Weather Forecast

Almanac

Astronomy

Feb. 11, 2016 Rise Set
Actual Time
Civil Twilight
Nautical Twilight
Astronomical Twilight
Moon
Length of Visible Light
Length of Day
Tomorrow will be .
, % of the Moon is Illuminated

Today's Extremes

State Highs State Lows

Community

WunderPhotos

Upload Photos

1,892,113 photos uploaded!

WunderBlog® & News

Nearby

Air Quality

  Air Quality AQ Index Pollutant
Not available.

Snow Depth

Station Depth Elevation

Earthquake Activity

City Distance Mag. Time & Date
Minimum magnitude displayed is 2.5.

Coastal Water Temperatures

Place Temperature

Stations

Nearby Weather Stations

Station Location Temp. Windchill Dew Point Humidity Wind Precip. Elev Updated Type
                   

Watches & Warnings

There are currently no watches in effect.